createdAt,value
2023-03-08T00:03:36.118Z,2.08
2023-03-08T00:07:39.658Z,2.17
2023-03-08T00:11:43.374Z,2.60
2023-03-08T00:15:46.987Z,2.33
2023-03-08T00:19:52.652Z,4.25
2023-03-08T00:23:56.212Z,2.13
2023-03-08T00:27:59.831Z,2.85
2023-03-08T00:32:06.439Z,2.65
2023-03-08T00:36:19.663Z,4.28
2023-03-08T00:40:23.253Z,3.25
2023-03-08T00:44:27.113Z,3.85
2023-03-08T00:48:30.740Z,2.67
2023-03-08T00:52:34.557Z,2.25
2023-03-08T00:56:38.286Z,4.00
2023-03-08T01:00:41.997Z,2.25
2023-03-08T01:04:45.883Z,2.88
2023-03-08T01:08:50.271Z,2.40
2023-03-08T01:12:54.478Z,2.88
2023-03-08T01:16:58.211Z,2.90
2023-03-08T01:21:04.361Z,3.63
2023-03-08T01:25:09.320Z,3.35
2023-03-08T01:29:13.016Z,1.60
2023-03-08T01:33:17.141Z,2.22
2023-03-08T01:37:20.882Z,1.95
2023-03-08T01:41:28.153Z,2.65
2023-03-08T01:46:09.675Z,2.20
2023-03-08T01:50:15.632Z,2.10
2023-03-08T01:54:49.830Z,2.75
2023-03-08T01:58:55.042Z,3.22
2023-03-08T02:03:02.403Z,2.78
2023-03-08T02:07:06.530Z,2.58
2023-03-08T02:11:12.044Z,2.03
2023-03-08T02:15:18.723Z,2.17
2023-03-08T02:19:38.386Z,3.30
2023-03-08T02:23:41.924Z,2.40
2023-03-08T02:27:45.897Z,2.85
2023-03-08T02:31:49.509Z,2.45
2023-03-08T02:35:53.483Z,3.45
2023-03-08T02:39:57.093Z,2.58
2023-03-08T02:44:00.653Z,2.20
2023-03-08T02:48:07.378Z,2.45
2023-03-08T02:52:11.792Z,2.80
2023-03-08T02:56:15.626Z,2.90
2023-03-08T03:00:19.639Z,1.92
2023-03-08T03:04:23.811Z,3.38
2023-03-08T03:08:29.538Z,2.90
2023-03-08T03:12:33.610Z,3.37
2023-03-08T03:16:40.740Z,3.08
2023-03-08T03:20:47.197Z,3.38
2023-03-08T03:24:51.763Z,3.13
2023-03-08T03:29:00.004Z,2.78
2023-03-08T03:33:07.829Z,4.55
2023-03-08T03:37:11.372Z,2.70
2023-03-08T03:41:20.886Z,2.45
2023-03-08T03:45:27.859Z,2.83
2023-03-08T03:49:31.593Z,3.58
2023-03-08T03:53:36.570Z,2.55
2023-03-08T03:57:40.900Z,3.50
2023-03-08T04:01:48.288Z,3.25
2023-03-08T04:06:18.270Z,2.75
2023-03-08T04:10:22.485Z,2.97
2023-03-08T04:14:27.558Z,3.53
2023-03-08T04:18:31.908Z,3.22
2023-03-08T04:22:36.710Z,3.15
2023-03-08T04:26:50.926Z,2.92
2023-03-08T04:30:57.292Z,2.53
2023-03-08T04:35:01.941Z,2.60
2023-03-08T04:39:07.547Z,3.30
2023-03-08T04:43:12.087Z,3.33
2023-03-08T04:47:16.673Z,2.70
2023-03-08T04:51:24.618Z,4.82
2023-03-08T04:55:29.473Z,2.95
2023-03-08T04:59:34.075Z,2.83
2023-03-08T05:03:40.749Z,2.60
2023-03-08T05:07:44.861Z,3.00
2023-03-08T05:11:48.978Z,3.60
2023-03-08T05:15:54.182Z,3.10
2023-03-08T05:19:57.994Z,2.80
2023-03-08T05:24:08.866Z,2.17
2023-03-08T05:28:16.221Z,2.05
2023-03-08T05:32:23.103Z,2.80
2023-03-08T05:36:27.739Z,3.80
2023-03-08T05:40:33.817Z,2.90
2023-03-08T05:44:40.541Z,2.70
2023-03-08T05:48:47.278Z,2.22
2023-03-08T05:57:02.381Z,3.75
2023-03-08T06:01:17.171Z,3.55
2023-03-08T06:05:20.976Z,3.83
2023-03-08T06:09:29.598Z,3.72
2023-03-08T06:13:34.440Z,2.47
2023-03-08T06:17:39.705Z,2.83
2023-03-08T06:21:44.576Z,2.53
2023-03-08T06:25:49.318Z,2.63
2023-03-08T06:29:53.378Z,2.78
2023-03-08T06:33:58.515Z,2.60
2023-03-08T06:38:04.566Z,2.40
2023-03-08T06:42:09.394Z,1.85
2023-03-08T06:46:17.384Z,2.40
2023-03-08T06:50:21.202Z,2.50
2023-03-08T06:54:26.659Z,3.08
2023-03-08T06:58:30.933Z,2.70
2023-03-08T07:02:34.625Z,2.78
2023-03-08T07:06:38.288Z,2.55
2023-03-08T07:10:41.871Z,2.55
2023-03-08T07:14:45.542Z,2.38
2023-03-08T07:18:50.570Z,3.08
2023-03-08T07:22:56.373Z,4.30
2023-03-08T07:26:59.885Z,2.35
2023-03-08T07:31:03.817Z,3.15
2023-03-08T07:35:09.486Z,2.35
2023-03-08T07:39:13.177Z,2.40
2023-03-08T07:43:16.828Z,2.67
2023-03-08T07:47:33.322Z,1.48
2023-03-08T07:51:37.710Z,2.33
2023-03-08T07:55:41.402Z,1.48
2023-03-08T07:59:44.944Z,1.30
2023-03-08T08:03:48.569Z,1.58
2023-03-08T08:07:52.249Z,2.03
2023-03-08T08:11:55.759Z,2.67
2023-03-08T08:16:04.538Z,1.98
2023-03-08T08:20:08.597Z,1.50
2023-03-08T08:24:12.126Z,1.38
2023-03-08T08:28:16.414Z,1.60
2023-03-08T08:32:19.950Z,2.03
2023-03-08T08:36:24.079Z,1.30
2023-03-08T08:40:29.567Z,1.55
2023-03-08T08:44:34.005Z,1.25
2023-03-08T08:48:39.684Z,3.00
2023-03-08T08:52:43.143Z,1.65
2023-03-08T08:56:46.600Z,1.40
2023-03-08T09:00:50.261Z,1.33
2023-03-08T09:04:54.313Z,1.73
2023-03-08T09:08:59.551Z,1.40
2023-03-08T09:13:03.185Z,1.50
2023-03-08T09:17:07.525Z,0.88
2023-03-08T09:21:11.833Z,1.80
2023-03-08T09:25:16.133Z,1.60
2023-03-08T09:29:19.587Z,1.10
2023-03-08T09:33:23.110Z,1.10
2023-03-08T09:37:26.599Z,1.70
2023-03-08T09:41:44.596Z,1.30
2023-03-08T09:45:53.938Z,1.00
2023-03-08T09:50:13.470Z,1.90
2023-03-08T09:54:21.976Z,1.40
2023-03-08T09:58:37.494Z,1.77
2023-03-08T10:03:06.006Z,1.05
2023-03-08T10:07:50.258Z,1.42
2023-03-08T10:12:13.017Z,0.77
2023-03-08T10:16:33.485Z,1.50
2023-03-08T10:20:39.294Z,1.17
2023-03-08T10:25:02.200Z,0.82
2023-03-08T10:29:05.717Z,0.98
2023-03-08T10:33:13.383Z,1.17
2023-03-08T10:37:22.507Z,1.27
2023-03-08T10:41:29.840Z,1.23
2023-03-08T10:45:33.965Z,1.95
2023-03-08T10:49:37.429Z,1.63
2023-03-08T10:53:40.980Z,1.20
2023-03-08T10:57:58.950Z,1.17
2023-03-08T11:02:13.074Z,1.10
2023-03-08T11:06:16.677Z,0.77
2023-03-08T11:10:26.296Z,1.05
2023-03-08T11:14:33.626Z,0.80
2023-03-08T11:18:47.577Z,1.20
2023-03-08T11:23:17.062Z,1.35
2023-03-08T11:27:27.419Z,1.05
2023-03-08T11:31:55.516Z,0.70
2023-03-08T11:36:21.561Z,2.00
2023-03-08T11:40:25.271Z,1.60
2023-03-08T11:44:37.442Z,1.42
2023-03-08T11:49:05.846Z,4.72
2023-03-08T11:53:30.449Z,4.20
2023-03-08T11:57:39.500Z,2.28
2023-03-08T12:01:50.661Z,1.80
2023-03-08T12:06:03.356Z,2.78
2023-03-08T12:10:20.320Z,2.63
2023-03-08T12:18:36.694Z,1.90
2023-03-08T12:22:43.180Z,1.50
2023-03-08T12:27:01.905Z,7.43
2023-03-08T12:31:28.366Z,4.68
2023-03-08T12:35:37.627Z,4.05
2023-03-08T12:39:54.707Z,5.03
2023-03-08T12:44:23.444Z,6.22
2023-03-08T12:48:51.386Z,3.00
2023-03-08T12:52:56.379Z,2.60
2023-03-08T12:57:02.724Z,2.47
2023-03-08T13:01:24.405Z,1.65
2023-03-08T13:05:28.798Z,2.22
2023-03-08T13:09:41.654Z,1.80
2023-03-08T13:13:57.641Z,1.80
2023-03-08T13:18:16.545Z,1.67
2023-03-08T13:22:36.411Z,1.65
2023-03-08T13:27:30.371Z,1.67
2023-03-08T13:31:34.738Z,1.17
2023-03-08T13:35:38.255Z,1.58
2023-03-08T13:39:41.698Z,1.85
2023-03-08T13:43:46.229Z,1.90
2023-03-08T13:47:50.523Z,9.02
2023-03-08T13:51:57.843Z,11.75
2023-03-08T13:56:03.506Z,9.00
2023-03-08T14:00:36.383Z,9.83
2023-03-08T14:04:43.341Z,8.68
2023-03-08T14:08:47.912Z,6.25
2023-03-08T14:12:51.303Z,5.38
2023-03-08T14:16:55.390Z,3.47
2023-03-08T14:21:02.084Z,3.15
2023-03-08T14:29:24.189Z,1.50
2023-03-08T14:33:41.761Z,1.40
2023-03-08T14:37:47.083Z,1.30
2023-03-08T14:41:51.037Z,0.80
2023-03-08T14:46:07.632Z,1.40
2023-03-08T14:50:11.054Z,1.15
2023-03-08T14:54:38.744Z,1.38
2023-03-08T14:58:46.634Z,1.10
2023-03-08T15:02:50.396Z,1.10
2023-03-08T15:06:55.116Z,1.23
2023-03-08T15:10:58.721Z,1.10
2023-03-08T15:15:03.058Z,1.40
2023-03-08T15:19:09.118Z,1.15
2023-03-08T15:23:22.057Z,0.90
2023-03-08T15:27:25.627Z,1.10
2023-03-08T15:31:30.803Z,0.63
2023-03-08T15:35:34.374Z,0.70
2023-03-08T15:39:37.779Z,1.05
2023-03-08T15:43:41.313Z,1.00
2023-03-08T15:47:59.314Z,1.00
2023-03-08T15:52:03.711Z,0.77
2023-03-08T15:56:07.624Z,1.10
2023-03-08T16:00:13.811Z,1.05
2023-03-08T16:04:18.282Z,0.80
2023-03-08T16:08:25.324Z,0.88
2023-03-08T16:12:28.755Z,1.15
2023-03-08T16:16:44.401Z,1.27
2023-03-08T16:20:48.831Z,0.90
2023-03-08T16:24:52.538Z,0.85
2023-03-08T16:28:56.065Z,1.35
2023-03-08T16:33:00.358Z,1.30
2023-03-08T16:37:05.826Z,0.93
2023-03-08T16:41:13.344Z,0.73
2023-03-08T16:45:17.756Z,0.95
2023-03-08T16:49:23.021Z,1.80
2023-03-08T16:53:28.013Z,1.10
2023-03-08T16:57:31.539Z,1.08
2023-03-08T17:01:35.159Z,1.00
2023-03-08T17:05:46.008Z,1.10
2023-03-08T17:09:50.902Z,0.90
2023-03-08T17:13:57.135Z,0.70
2023-03-08T17:18:00.609Z,0.70
2023-03-08T17:22:04.809Z,0.60
2023-03-08T17:26:11.812Z,0.80
2023-03-08T17:30:16.260Z,0.55
2023-03-08T17:34:23.379Z,0.88
2023-03-08T17:38:26.840Z,2.88
2023-03-08T17:42:30.364Z,1.10
2023-03-08T17:46:33.937Z,0.85
2023-03-08T17:50:37.526Z,1.30
2023-03-08T17:54:41.002Z,1.95
2023-03-08T17:58:44.642Z,3.28
2023-03-08T18:02:48.150Z,2.72
2023-03-08T18:06:51.742Z,2.70
2023-03-08T18:10:55.273Z,1.98
2023-03-08T18:14:58.851Z,1.52
2023-03-08T18:19:04.140Z,1.63
2023-03-08T18:23:07.707Z,1.50
2023-03-08T18:27:11.291Z,1.40
2023-03-08T18:31:23.470Z,1.70
2023-03-08T18:35:27.422Z,2.13
2023-03-08T18:39:31.096Z,3.03
2023-03-08T18:43:34.525Z,1.63
2023-03-08T18:47:39.351Z,2.70
2023-03-08T18:51:43.667Z,1.98
2023-03-08T18:55:55.071Z,2.58
2023-03-08T18:59:58.472Z,3.47
2023-03-08T19:04:04.338Z,2.00
2023-03-08T19:08:07.889Z,2.88
2023-03-08T19:12:11.844Z,2.53
2023-03-08T19:16:30.024Z,4.68
2023-03-08T19:20:40.897Z,2.40
2023-03-08T19:24:44.960Z,2.25
2023-03-08T19:28:48.729Z,2.72
2023-03-08T19:32:53.926Z,3.08
2023-03-08T19:36:59.955Z,1.88
2023-03-08T19:41:04.303Z,3.10
2023-03-08T19:45:08.587Z,3.53
2023-03-08T19:49:16.221Z,3.55
2023-03-08T19:53:19.719Z,4.50
2023-03-08T19:57:23.173Z,2.80
2023-03-08T20:01:27.908Z,4.13
2023-03-08T20:05:31.437Z,5.30
2023-03-08T20:09:34.881Z,3.40
2023-03-08T20:13:38.540Z,4.40
2023-03-08T20:17:41.994Z,4.15
2023-03-08T20:21:45.695Z,2.55
2023-03-08T20:25:49.232Z,2.75
2023-03-08T20:29:53.492Z,3.65
2023-03-08T20:33:57.523Z,3.13
2023-03-08T20:38:02.820Z,2.35
2023-03-08T20:42:06.391Z,3.28
2023-03-08T20:46:12.234Z,3.25
2023-03-08T20:50:15.722Z,3.70
2023-03-08T20:54:20.061Z,2.83
2023-03-08T20:58:24.054Z,2.20
2023-03-08T21:02:27.763Z,2.85
2023-03-08T21:06:32.443Z,3.58
2023-03-08T21:10:37.518Z,2.45
2023-03-08T21:14:43.376Z,3.22
2023-03-08T21:18:54.642Z,2.30
2023-03-08T21:22:58.142Z,2.53
2023-03-08T21:27:01.686Z,2.10
2023-03-08T21:31:11.651Z,1.90
2023-03-08T21:35:15.295Z,3.33
2023-03-08T21:39:20.226Z,1.70
2023-03-08T21:43:24.123Z,2.38
2023-03-08T21:47:27.640Z,3.25
2023-03-08T21:51:33.408Z,4.03
2023-03-08T21:55:40.408Z,2.33
2023-03-08T21:59:43.983Z,2.22
2023-03-08T22:03:48.121Z,2.42
2023-03-08T22:07:51.801Z,2.72
2023-03-08T22:11:57.260Z,3.00
2023-03-08T22:16:00.799Z,4.43
2023-03-08T22:20:05.813Z,4.10
2023-03-08T22:24:10.567Z,3.35
2023-03-08T22:28:14.262Z,3.75
2023-03-08T22:32:18.277Z,4.25
2023-03-08T22:36:22.435Z,3.22
2023-03-08T22:40:26.208Z,3.50
2023-03-08T22:44:30.186Z,3.30
2023-03-08T22:48:33.710Z,3.65
2023-03-08T22:52:37.208Z,2.20
2023-03-08T22:56:40.905Z,3.15
2023-03-08T23:00:44.380Z,5.28
2023-03-08T23:04:47.907Z,4.78
2023-03-08T23:08:51.644Z,2.40
2023-03-08T23:12:55.114Z,4.00
2023-03-08T23:16:58.910Z,3.15
2023-03-08T23:21:08.176Z,2.35
2023-03-08T23:25:11.797Z,2.10
2023-03-08T23:29:16.033Z,1.92
2023-03-08T23:33:19.626Z,2.17
2023-03-08T23:37:23.245Z,2.95
2023-03-08T23:41:29.186Z,2.22
2023-03-08T23:45:32.645Z,2.35
2023-03-08T23:49:36.267Z,2.40
2023-03-08T23:53:40.602Z,3.65
2023-03-08T23:57:43.984Z,2.95
